createdAt,value
2022-07-25T00:08:01.755Z,98878.02
2022-07-25T00:18:08.872Z,98875.45
2022-07-25T00:28:12.518Z,98881.61
2022-07-25T00:38:16.366Z,98879.31
2022-07-25T00:48:19.957Z,98879.13
2022-07-25T00:58:23.311Z,98880.58
2022-07-25T01:08:32.253Z,98869.89
2022-07-25T01:18:37.093Z,98861.10
2022-07-25T01:28:41.005Z,98853.86
2022-07-25T01:38:44.644Z,98846.41
2022-07-25T01:48:48.250Z,98849.75
2022-07-25T01:58:51.982Z,98845.31
2022-07-25T02:08:55.777Z,98838.02
2022-07-25T02:18:59.325Z,98833.59
2022-07-25T02:29:03.100Z,98828.21
2022-07-25T02:39:06.795Z,98830.29
2022-07-25T02:49:10.496Z,98829.21
2022-07-25T02:59:14.429Z,98831.46
2022-07-25T03:09:18.660Z,98828.55
2022-07-25T03:19:22.229Z,98819.78
2022-07-25T03:29:26.509Z,98812.61
2022-07-25T03:39:30.391Z,98809.79
2022-07-25T03:49:35.571Z,98805.42
2022-07-25T03:59:39.437Z,98804.03
2022-07-25T04:09:43.037Z,98806.15
2022-07-25T04:19:46.514Z,98813.98
2022-07-25T04:29:50.415Z,98811.45
2022-07-25T04:39:53.935Z,98803.80
2022-07-25T04:49:57.518Z,98798.60
2022-07-25T05:00:01.405Z,98794.23
2022-07-25T05:10:04.066Z,98791.44
2022-07-25T05:20:10.009Z,98781.85
2022-07-25T05:30:13.351Z,98775.23
2022-07-25T05:40:18.882Z,98758.37
2022-07-25T05:50:25.398Z,98753.36
2022-07-25T06:00:29.437Z,98749.06
2022-07-25T06:10:32.980Z,98742.64
2022-07-25T06:20:36.718Z,98744.90
2022-07-25T06:55:40.976Z,98716.85
2022-07-25T07:05:48.296Z,98705.84
2022-07-25T07:15:54.919Z,98701.88
2022-07-25T07:26:00.753Z,98707.73
2022-07-25T07:36:05.568Z,98698.19
2022-07-25T07:46:13.341Z,98696.20
2022-07-25T07:56:19.144Z,98689.19
2022-07-25T08:06:27.951Z,98691.08
2022-07-25T08:16:35.453Z,98689.60
2022-07-25T08:26:42.886Z,98683.45
2022-07-25T08:36:50.449Z,98674.45
2022-07-25T08:46:58.088Z,98673.74
2022-07-25T08:57:04.395Z,98667.35
2022-07-25T09:07:10.650Z,98656.54
2022-07-25T09:17:22.302Z,98654.71
2022-07-25T09:27:35.687Z,98645.98
2022-07-25T09:37:42.970Z,98629.34
2022-07-25T09:47:54.022Z,98629.83
2022-07-25T09:58:01.338Z,98619.31
2022-07-25T10:08:09.185Z,98614.75
2022-07-25T10:18:18.657Z,98608.91
2022-07-25T10:28:36.302Z,98596.91
2022-07-25T10:38:45.525Z,98589.95
2022-07-25T10:48:58.999Z,98580.39
2022-07-25T10:59:06.804Z,98576.02
2022-07-25T11:09:19.127Z,98560.46
2022-07-25T11:19:30.482Z,98540.79
2022-07-25T11:30:09.443Z,98529.34
2022-07-25T11:40:16.702Z,98514.75
2022-07-25T11:50:30.581Z,98494.24
2022-07-25T12:00:35.837Z,98492.85
2022-07-25T12:10:43.795Z,98480.96
2022-07-25T12:20:51.235Z,98468.85
2022-07-25T12:30:58.391Z,98450.85
2022-07-25T12:41:06.015Z,98433.29
2022-07-25T12:51:13.095Z,98422.80
2022-07-25T13:01:20.371Z,98411.21
2022-07-25T13:11:27.540Z,98400.66
2022-07-25T13:21:34.598Z,98390.55
2022-07-25T13:31:39.542Z,98366.58
2022-07-25T13:41:47.289Z,98360.53
2022-07-25T13:51:54.750Z,98346.70
2022-07-25T14:02:02.028Z,98328.19
2022-07-25T14:12:10.085Z,98317.02
2022-07-25T14:22:17.540Z,98313.35
2022-07-25T14:32:25.126Z,98301.66
2022-07-25T14:42:33.224Z,98291.25
2022-07-25T14:52:41.005Z,98282.61
2022-07-25T15:02:47.131Z,98273.34
2022-07-25T15:13:07.818Z,98258.91
2022-07-25T15:23:21.355Z,98238.73
2022-07-25T15:33:28.846Z,98228.05
2022-07-25T15:43:35.882Z,98217.66
2022-07-25T15:53:42.993Z,98203.84
2022-07-25T16:03:50.441Z,98204.48
2022-07-25T16:13:57.674Z,98201.80
2022-07-25T16:24:04.872Z,98194.95
2022-07-25T16:34:12.226Z,98188.71
2022-07-25T16:44:19.726Z,98178.84
2022-07-25T16:54:25.890Z,98171.55
2022-07-25T17:04:34.347Z,98164.14
2022-07-25T17:14:41.592Z,98157.95
2022-07-25T17:24:48.956Z,98155.45
2022-07-25T17:34:55.297Z,98154.40
2022-07-25T17:45:01.442Z,98151.08
2022-07-25T17:55:07.270Z,98143.41
2022-07-25T18:05:15.206Z,98135.14
2022-07-25T18:15:22.642Z,98129.14
2022-07-25T18:25:29.741Z,98117.30
2022-07-25T18:35:37.612Z,98099.89
2022-07-25T18:45:46.872Z,98087.35
2022-07-25T18:55:53.927Z,98083.98
2022-07-25T19:06:03.433Z,98081.45
2022-07-25T19:16:12.084Z,98074.78
2022-07-25T19:26:19.858Z,98072.29
2022-07-25T19:36:27.124Z,98065.91
2022-07-25T19:46:33.284Z,98059.71
2022-07-25T19:56:39.863Z,98060.31
2022-07-25T20:06:47.367Z,98062.88
2022-07-25T20:16:53.713Z,98072.09
2022-07-25T20:26:59.905Z,98068.42
2022-07-25T20:37:07.008Z,98070.31
2022-07-25T20:47:13.894Z,98071.80
2022-07-25T20:57:22.544Z,98077.94
2022-07-25T21:07:29.625Z,98079.83
2022-07-25T21:17:36.158Z,98072.35
2022-07-25T21:27:42.288Z,98070.16
2022-07-25T21:37:50.470Z,98064.90
2022-07-25T21:47:57.706Z,98050.27
2022-07-25T21:58:10.246Z,98045.58
2022-07-25T22:08:17.404Z,98040.03
2022-07-25T22:18:23.632Z,98023.82
2022-07-25T22:28:30.810Z,98012.98
2022-07-25T22:38:38.361Z,98006.05
2022-07-25T22:48:45.616Z,97991.23
2022-07-25T22:58:53.493Z,97982.36
2022-07-25T23:09:00.888Z,97963.89
2022-07-25T23:19:08.719Z,97937.42
2022-07-25T23:29:16.106Z,97934.14
2022-07-25T23:39:23.327Z,97931.33
2022-07-25T23:49:30.519Z,97924.94
2022-07-25T23:59:38.026Z,97921.05
